Aeroporto :
LOGIN :

Iscrizione | Disclaimer

   EN    FR    IT 

 










Sommario :    VFR   VFR Marginale   IFR   IFR Intensivo   IFR Molto Intensivo
Visibilità : 
Base nubi : 
>= 8 km
>= 3000ft
5 / 8 km
1000 / 3000 ft
1500m / 5 km
500 / 1000 ft
800 / 1500m
200 / 500 ft
< 800m
< 200 ft
Simboli :   Temporali  Nebbia  Neve Forte  Precipitazioni Forti  Vento > 20 kt
SIGMETs :   Varie  Temporali  Ghiacco  Turbolenza  Onda orograficha  Ceneri Vulcaniche






- Altitudine del aeroporto : 154 ft
- Codice IATA : SZZ


EPSC - Szczecin Goleniow

ULTIMO METAR :
  • 071030Z 33013KT 290V360 CAVOK 15/06 Q1030

METARs OBSOLETI :
  • 071000Z 33012KT 290V020 CAVOK 16/06 Q1030
  • 070930Z 29013KT CAVOK 15/08 Q1029
  • 070900Z 31016KT CAVOK 15/08 Q1029
  • 070830Z 31014KT CAVOK 15/07 Q1028
  • 070800Z 30014KT CAVOK 14/04 Q1028

TAF TAF EPSC
Valido dal 07 a 06 ore il 08 a 06 ore UTC


070530Z 0706/0806 18004KT CAVOK
BECMG 0707/0710 32012KT
PROB40 0708/0710 SCT004 BKN007
PROB40
TEMPO 0710/0714 33015G25KT
BECMG 0716/0719 VRB02KT
TEMPO 0800/0806 1500 BR



MetMap, La meteo Aeronautica in un colpo d'occhio ! - Copyright ORBIFLY Dicembre 2007 - Disclaimer

ORBIFLY MET'MAP TEAM :

Programmazione e sviluppo : Alexandra Zaïnal
Concezione : Baudouin d'Aumeries
Aiuto per la programmazione : Marc-Olivier Méhu
Supporto tecnico e logistico : Manuel Goepfert
Aiuto per la traduzione : Arnaldo La Scala

Contatto : metmap@orbifly.com




FONTI E CREDITI :

   NOAA